TVS4119 HKMO-HEGN
Flight info
| Callsign | TVS4119 |
|---|---|
| Flight time | N/A |
| Altitude | 36000 |
| Route | IBNOK UN301 WAV/N0499F340 UN301 ALEMU UT129 GETOL/N0495F350 UM308 KONET UG650 RASKA/N0489F360 T513 EGMEG/N0485F370 G660 JDW/N0494F340 M686 ORKEN L315 HGD |
| Aircraft | B738/M-VGDW/C |
Departure
| Time | 2026-05-07 08:10 |
|---|---|
| Airport | Moi International Airport (HKMO) |
Arrival
| Time | N/A |
|---|---|
| Airport | Hurghada International Airport (HEGN) |
| Time | Latitude | Longitude | Altitude | Speed | Heading |
|---|---|---|---|---|---|
| 2026-05-07 07:58 | -4.03113 | 39.60251 | 204 ft | 0 kts | 118° |
| 2026-05-07 08:00 | -4.03109 | 39.60243 | 204 ft | 2 kts | 118° |
| 2026-05-07 08:01 | -4.03101 | 39.60229 | 207 ft | 2 kts | 118° |
| 2026-05-07 08:01 | -4.03093 | 39.60214 | 209 ft | 2 kts | 118° |
| 2026-05-07 08:01 | -4.03085 | 39.60200 | 214 ft | 2 kts | 118° |
| 2026-05-07 08:01 | -4.03081 | 39.60192 | 209 ft | 1 kts | 118° |
| 2026-05-07 08:02 | -4.03080 | 39.60190 | 209 ft | 0 kts | 118° |
| 2026-05-07 08:03 | -4.03085 | 39.60191 | 204 ft | 1 kts | 175° |
| 2026-05-07 08:04 | -4.03087 | 39.60177 | 213 ft | 4 kts | 278° |
| 2026-05-07 08:04 | -4.03062 | 39.60127 | 204 ft | 12 kts | 300° |
| 2026-05-07 08:04 | -4.03013 | 39.60039 | 214 ft | 16 kts | 297° |
| 2026-05-07 08:04 | -4.02964 | 39.59954 | 206 ft | 10 kts | 313° |
| 2026-05-07 08:05 | -4.02887 | 39.59962 | 211 ft | 14 kts | 30° |
| 2026-05-07 08:05 | -4.02793 | 39.60018 | 208 ft | 18 kts | 30° |
| 2026-05-07 08:05 | -4.02676 | 39.60080 | 206 ft | 21 kts | 31° |
| 2026-05-07 08:05 | -4.02541 | 39.60156 | 204 ft | 24 kts | 29° |
| 2026-05-07 08:06 | -4.02387 | 39.60243 | 210 ft | 27 kts | 29° |
| 2026-05-07 08:06 | -4.02215 | 39.60339 | 211 ft | 30 kts | 29° |
| 2026-05-07 08:06 | -4.02028 | 39.60443 | 207 ft | 32 kts | 28° |
| 2026-05-07 08:06 | -4.01837 | 39.60551 | 204 ft | 27 kts | 28° |
| 2026-05-07 08:07 | -4.01721 | 39.60615 | 210 ft | 20 kts | 30° |
| 2026-05-07 08:07 | -4.01598 | 39.60684 | 210 ft | 20 kts | 29° |
| 2026-05-07 08:07 | -4.01508 | 39.60731 | 213 ft | 7 kts | 21° |
| 2026-05-07 08:07 | -4.01458 | 39.60740 | 207 ft | 7 kts | 1° |
| 2026-05-07 08:08 | -4.01410 | 39.60731 | 213 ft | 7 kts | 339° |
| 2026-05-07 08:08 | -4.01399 | 39.60726 | 207 ft | 0 kts | 334° |
| 2026-05-07 08:08 | -4.01397 | 39.60725 | 206 ft | 2 kts | 334° |
| 2026-05-07 08:08 | -4.01365 | 39.60707 | 213 ft | 9 kts | 325° |
| 2026-05-07 08:09 | -4.01350 | 39.60632 | 209 ft | 15 kts | 235° |
| 2026-05-07 08:09 | -4.01458 | 39.60564 | 211 ft | 30 kts | 209° |
| 2026-05-07 08:09 | -4.01817 | 39.60365 | 215 ft | 87 kts | 209° |
| 2026-05-07 08:09 | -4.02495 | 39.59985 | 204 ft | 134 kts | 209° |
| 2026-05-07 08:10 | -4.03423 | 39.59483 | 249 ft | 166 kts | 207° |
| 2026-05-07 08:10 | -4.04440 | 39.58931 | 756 ft | 165 kts | 208° |
| 2026-05-07 08:10 | -4.05448 | 39.58382 | 1266 ft | 168 kts | 207° |
| 2026-05-07 08:10 | -4.06618 | 39.58101 | 1444 ft | 187 kts | 166° |
| 2026-05-07 08:11 | -4.07709 | 39.58875 | 1638 ft | 209 kts | 123° |
| 2026-05-07 08:11 | -4.08042 | 39.60348 | 1791 ft | 232 kts | 86° |
| 2026-05-07 08:11 | -4.07422 | 39.61903 | 1949 ft | 256 kts | 61° |
| 2026-05-07 08:11 | -4.06440 | 39.63432 | 2263 ft | 269 kts | 60° |
| 2026-05-07 08:12 | -4.05421 | 39.65019 | 2847 ft | 270 kts | 60° |
| 2026-05-07 08:12 | -4.04427 | 39.66599 | 3534 ft | 269 kts | 60° |
| 2026-05-07 08:12 | -4.03438 | 39.68202 | 4135 ft | 271 kts | 61° |
| 2026-05-07 08:12 | -4.02451 | 39.69826 | 4736 ft | 271 kts | 61° |
| 2026-05-07 08:13 | -4.01470 | 39.71454 | 5041 ft | 278 kts | 61° |
| 2026-05-07 08:13 | -4.00468 | 39.73130 | 5590 ft | 281 kts | 61° |
| 2026-05-07 08:13 | -3.99466 | 39.74809 | 6258 ft | 281 kts | 62° |
| 2026-05-07 08:13 | -3.98454 | 39.76511 | 6818 ft | 285 kts | 62° |
| 2026-05-07 08:14 | -3.97435 | 39.78225 | 7406 ft | 288 kts | 61° |
| 2026-05-07 08:14 | -3.96444 | 39.79891 | 7966 ft | 291 kts | 62° |
| 2026-05-07 08:14 | -3.95123 | 39.81439 | 8608 ft | 297 kts | 36° |
| 2026-05-07 08:14 | -3.93208 | 39.82243 | 9261 ft | 304 kts | 9° |
| 2026-05-07 08:15 | -3.91083 | 39.82279 | 9864 ft | 307 kts | 358° |
| 2026-05-07 08:15 | -3.88922 | 39.82154 | 10368 ft | 318 kts | 356° |
| 2026-05-07 08:15 | -3.86702 | 39.81997 | 10494 ft | 338 kts | 356° |
| 2026-05-07 08:15 | -3.84223 | 39.81817 | 10649 ft | 357 kts | 356° |
| 2026-05-07 08:16 | -3.81700 | 39.81639 | 10903 ft | 369 kts | 356° |
| 2026-05-07 08:16 | -3.79112 | 39.81464 | 11270 ft | 377 kts | 356° |
| 2026-05-07 08:16 | -3.76471 | 39.81291 | 11756 ft | 381 kts | 356° |
| 2026-05-07 08:16 | -3.73823 | 39.81122 | 12397 ft | 382 kts | 356° |
| 2026-05-07 08:17 | -3.71147 | 39.80953 | 12886 ft | 388 kts | 356° |
| 2026-05-07 08:17 | -3.68491 | 39.80789 | 13484 ft | 389 kts | 356° |
| 2026-05-07 08:17 | -3.65776 | 39.80622 | 13970 ft | 393 kts | 356° |
| 2026-05-07 08:17 | -3.63032 | 39.80453 | 14477 ft | 395 kts | 356° |
| 2026-05-07 08:18 | -3.60273 | 39.80283 | 14967 ft | 398 kts | 356° |
| 2026-05-07 08:18 | -3.57502 | 39.80113 | 15474 ft | 401 kts | 356° |
| 2026-05-07 08:18 | -3.54711 | 39.79941 | 15974 ft | 403 kts | 356° |
| 2026-05-07 08:18 | -3.51897 | 39.79768 | 16501 ft | 405 kts | 356° |
| 2026-05-07 08:19 | -3.49072 | 39.79594 | 16964 ft | 409 kts | 357° |
| 2026-05-07 08:19 | -3.46222 | 39.79419 | 17453 ft | 411 kts | 357° |
| 2026-05-07 08:19 | -3.43361 | 39.79243 | 17916 ft | 414 kts | 357° |
| 2026-05-07 08:19 | -3.40479 | 39.79066 | 18347 ft | 416 kts | 357° |
| 2026-05-07 08:20 | -3.37580 | 39.78888 | 18793 ft | 417 kts | 357° |
| 2026-05-07 08:20 | -3.34669 | 39.78709 | 19178 ft | 420 kts | 357° |
| 2026-05-07 08:20 | -3.31741 | 39.78529 | 19549 ft | 423 kts | 357° |
| 2026-05-07 08:20 | -3.28790 | 39.78347 | 19952 ft | 424 kts | 357° |
| 2026-05-07 08:21 | -3.25840 | 39.78166 | 20313 ft | 427 kts | 357° |
| 2026-05-07 08:21 | -3.22862 | 39.77983 | 20657 ft | 430 kts | 357° |
| 2026-05-07 08:21 | -3.19905 | 39.77801 | 21091 ft | 430 kts | 357° |
| 2026-05-07 08:21 | -3.16916 | 39.77617 | 21457 ft | 432 kts | 357° |
| 2026-05-07 08:22 | -3.13906 | 39.77432 | 21782 ft | 435 kts | 357° |
| 2026-05-07 08:22 | -3.10870 | 39.77246 | 22131 ft | 437 kts | 357° |
| 2026-05-07 08:22 | -3.07840 | 39.77059 | 22484 ft | 438 kts | 357° |
| 2026-05-07 08:22 | -3.04779 | 39.76871 | 22812 ft | 440 kts | 357° |
| 2026-05-07 08:23 | -3.01712 | 39.76682 | 23152 ft | 442 kts | 357° |
| 2026-05-07 08:23 | -2.99681 | 39.76557 | 23384 ft | 443 kts | 357° |
| 2026-05-07 08:23 | -2.96591 | 39.76368 | 23692 ft | 445 kts | 357° |
| 2026-05-07 08:23 | -2.94325 | 39.76228 | 23903 ft | 446 kts | 357° |
| 2026-05-07 08:24 | -2.91216 | 39.76037 | 24165 ft | 449 kts | 357° |
| 2026-05-07 08:24 | -2.88089 | 39.75845 | 24414 ft | 450 kts | 357° |
| 2026-05-07 08:24 | -2.84956 | 39.75652 | 24674 ft | 451 kts | 357° |
| 2026-05-07 08:24 | -2.81808 | 39.75459 | 24924 ft | 453 kts | 357° |
| 2026-05-07 08:25 | -2.78774 | 39.75273 | 25171 ft | 454 kts | 357° |
| 2026-05-07 08:25 | -2.75639 | 39.75080 | 25410 ft | 456 kts | 357° |
| 2026-05-07 08:25 | -2.72463 | 39.74885 | 25636 ft | 458 kts | 357° |
| 2026-05-07 08:25 | -2.69270 | 39.74689 | 25856 ft | 460 kts | 357° |
| 2026-05-07 08:26 | -2.62853 | 39.74295 | 26296 ft | 463 kts | 357° |
| 2026-05-07 08:26 | -2.59621 | 39.74231 | 26511 ft | 464 kts | 2° |
| 2026-05-07 08:26 | -2.56395 | 39.74401 | 26717 ft | 466 kts | 5° |
| 2026-05-07 08:27 | -2.53160 | 39.74675 | 26943 ft | 467 kts | 6° |
| 2026-05-07 08:27 | -2.49925 | 39.74975 | 27137 ft | 468 kts | 6° |
| 2026-05-07 08:27 | -2.46658 | 39.75266 | 27330 ft | 470 kts | 5° |
| 2026-05-07 08:27 | -2.43397 | 39.75534 | 27521 ft | 472 kts | 5° |
| 2026-05-07 08:28 | -2.40102 | 39.75784 | 27715 ft | 473 kts | 5° |
| 2026-05-07 08:28 | -2.36804 | 39.76022 | 27902 ft | 475 kts | 5° |
| 2026-05-07 08:28 | -2.33549 | 39.76248 | 28077 ft | 476 kts | 5° |
| 2026-05-07 08:28 | -2.30230 | 39.76476 | 28255 ft | 478 kts | 4° |
| 2026-05-07 08:29 | -2.26904 | 39.76705 | 28430 ft | 479 kts | 5° |
| 2026-05-07 08:29 | -2.23572 | 39.76935 | 28612 ft | 480 kts | 5° |
| 2026-05-07 08:29 | -2.20229 | 39.77166 | 28788 ft | 482 kts | 5° |
| 2026-05-07 08:29 | -2.16872 | 39.77399 | 28950 ft | 483 kts | 4° |
| 2026-05-07 08:30 | -2.13519 | 39.77633 | 29108 ft | 485 kts | 5° |
| 2026-05-07 08:30 | -2.10144 | 39.77868 | 29305 ft | 485 kts | 4° |
| 2026-05-07 08:30 | -2.06772 | 39.78103 | 29565 ft | 484 kts | 4° |
| 2026-05-07 08:30 | -2.03454 | 39.78334 | 29816 ft | 484 kts | 4° |
| 2026-05-07 08:31 | -2.00105 | 39.78567 | 30052 ft | 483 kts | 4° |
| 2026-05-07 08:31 | -1.96743 | 39.78801 | 30256 ft | 483 kts | 4° |
| 2026-05-07 08:31 | -1.93397 | 39.79034 | 30489 ft | 482 kts | 4° |
| 2026-05-07 08:31 | -1.90053 | 39.79267 | 30768 ft | 479 kts | 4° |
| 2026-05-07 08:32 | -1.86737 | 39.79498 | 31046 ft | 477 kts | 4° |
| 2026-05-07 08:32 | -1.83426 | 39.79729 | 31294 ft | 476 kts | 4° |
| 2026-05-07 08:32 | -1.80121 | 39.79959 | 31538 ft | 475 kts | 4° |
| 2026-05-07 08:32 | -1.76822 | 39.80187 | 31798 ft | 474 kts | 4° |
| 2026-05-07 08:33 | -1.73524 | 39.80407 | 32074 ft | 472 kts | 3° |
| 2026-05-07 08:33 | -1.70295 | 39.80618 | 32334 ft | 471 kts | 3° |
| 2026-05-07 08:33 | -1.66981 | 39.80833 | 32597 ft | 470 kts | 3° |
| 2026-05-07 08:33 | -1.63756 | 39.81042 | 32852 ft | 468 kts | 3° |
| 2026-05-07 08:34 | -1.60507 | 39.81253 | 33122 ft | 467 kts | 3° |
| 2026-05-07 08:34 | -1.57267 | 39.81465 | 33390 ft | 466 kts | 3° |
| 2026-05-07 08:34 | -1.54035 | 39.81676 | 33658 ft | 464 kts | 3° |
| 2026-05-07 08:34 | -1.50808 | 39.81888 | 33921 ft | 463 kts | 3° |
| 2026-05-07 08:35 | -1.47599 | 39.82098 | 34155 ft | 462 kts | 3° |
| 2026-05-07 08:35 | -1.44387 | 39.82309 | 34375 ft | 461 kts | 3° |
| 2026-05-07 08:35 | -1.41232 | 39.82517 | 34573 ft | 460 kts | 3° |
| 2026-05-07 08:35 | -1.38027 | 39.82727 | 34763 ft | 460 kts | 3° |
| 2026-05-07 08:36 | -1.34832 | 39.82936 | 34950 ft | 460 kts | 3° |
| 2026-05-07 08:36 | -1.31636 | 39.83146 | 35156 ft | 459 kts | 3° |
| 2026-05-07 08:36 | -1.28445 | 39.83355 | 35390 ft | 458 kts | 3° |
| 2026-05-07 08:36 | -1.25266 | 39.83563 | 35590 ft | 457 kts | 3° |
| 2026-05-07 08:37 | -1.22091 | 39.83771 | 35762 ft | 457 kts | 3° |
| 2026-05-07 08:37 | -1.18911 | 39.83980 | 35913 ft | 457 kts | 3° |
| 2026-05-07 08:37 | -1.12589 | 39.84394 | 35941 ft | 459 kts | 3° |
| 2026-05-07 08:38 | -1.06207 | 39.84812 | 35945 ft | 460 kts | 3° |
| 2026-05-07 08:38 | -0.99822 | 39.85231 | 35946 ft | 460 kts | 3° |
| 2026-05-07 08:39 | -0.93425 | 39.85651 | 35944 ft | 461 kts | 3° |
| 2026-05-07 08:39 | -0.87012 | 39.86071 | 35932 ft | 461 kts | 3° |
| 2026-05-07 08:40 | -0.80609 | 39.86491 | 35938 ft | 460 kts | 3° |
| 2026-05-07 08:40 | -0.74250 | 39.86908 | 35937 ft | 460 kts | 3° |
| 2026-05-07 08:41 | -0.67867 | 39.87326 | 35942 ft | 459 kts | 3° |
| 2026-05-07 08:41 | -0.61506 | 39.87743 | 35943 ft | 458 kts | 3° |
| 2026-05-07 08:42 | -0.55178 | 39.88158 | 35933 ft | 457 kts | 3° |
| 2026-05-07 08:42 | -0.48843 | 39.88573 | 35932 ft | 456 kts | 4° |
| 2026-05-07 08:43 | -0.42510 | 39.88989 | 35945 ft | 455 kts | 4° |
| 2026-05-07 08:43 | -0.36193 | 39.89403 | 35941 ft | 454 kts | 4° |
| 2026-05-07 08:44 | -0.29883 | 39.89835 | 35938 ft | 454 kts | 4° |
| 2026-05-07 08:44 | -0.23591 | 39.90393 | 35937 ft | 453 kts | 5° |
| 2026-05-07 08:45 | -0.17305 | 39.90981 | 35938 ft | 453 kts | 5° |
| 2026-05-07 08:45 | -0.11063 | 39.91553 | 35937 ft | 453 kts | 5° |
| 2026-05-07 08:46 | -0.04772 | 39.92118 | 35938 ft | 453 kts | 5° |
| 2026-05-07 08:46 | 0.01514 | 39.92680 | 35937 ft | 453 kts | 5° |
| 2026-05-07 08:47 | 0.07798 | 39.93242 | 35937 ft | 454 kts | 5° |
| 2026-05-07 08:47 | 0.14092 | 39.93804 | 35927 ft | 454 kts | 5° |
| 2026-05-07 08:48 | 0.20387 | 39.94368 | 35933 ft | 454 kts | 5° |
| 2026-05-07 08:48 | 0.26686 | 39.94931 | 35935 ft | 454 kts | 5° |
| 2026-05-07 08:49 | 0.32978 | 39.95494 | 35927 ft | 454 kts | 5° |
| 2026-05-07 08:49 | 0.39254 | 39.96055 | 35930 ft | 454 kts | 5° |
| 2026-05-07 08:50 | 0.45562 | 39.96620 | 35930 ft | 454 kts | 5° |
| 2026-05-07 08:50 | 0.51862 | 39.97183 | 35935 ft | 455 kts | 5° |
| 2026-05-07 08:51 | 0.58163 | 39.97747 | 35928 ft | 454 kts | 5° |
| 2026-05-07 08:51 | 0.64469 | 39.98311 | 35928 ft | 454 kts | 5° |
| 2026-05-07 08:52 | 0.70769 | 39.98875 | 35932 ft | 454 kts | 5° |
| 2026-05-07 08:52 | 0.77070 | 39.99439 | 35930 ft | 454 kts | 5° |
| 2026-05-07 08:53 | 0.83319 | 39.99998 | 35937 ft | 454 kts | 5° |
| 2026-05-07 08:53 | 0.89616 | 40.00562 | 35931 ft | 453 kts | 5° |
| 2026-05-07 08:54 | 0.95896 | 40.01124 | 35935 ft | 453 kts | 5° |
| 2026-05-07 08:54 | 1.02180 | 40.01688 | 35934 ft | 453 kts | 5° |
| 2026-05-07 08:55 | 1.08457 | 40.02256 | 35928 ft | 453 kts | 5° |
| 2026-05-07 08:55 | 1.14699 | 40.02820 | 35943 ft | 453 kts | 5° |
| 2026-05-07 08:56 | 1.20982 | 40.03388 | 35939 ft | 453 kts | 5° |
| 2026-05-07 08:56 | 1.27266 | 40.03956 | 35937 ft | 453 kts | 5° |
| 2026-05-07 08:57 | 1.33545 | 40.04523 | 35939 ft | 453 kts | 5° |
| 2026-05-07 08:57 | 1.39824 | 40.05091 | 35937 ft | 453 kts | 5° |
| 2026-05-07 08:58 | 1.46108 | 40.05659 | 35928 ft | 453 kts | 5° |
| 2026-05-07 08:58 | 1.52339 | 40.06222 | 35926 ft | 453 kts | 5° |
| 2026-05-07 08:59 | 1.58622 | 40.06790 | 35922 ft | 453 kts | 5° |
| 2026-05-07 08:59 | 1.64905 | 40.07358 | 35910 ft | 453 kts | 5° |
| 2026-05-07 09:00 | 1.71195 | 40.07926 | 35907 ft | 453 kts | 5° |
| 2026-05-07 09:00 | 1.77475 | 40.07859 | 35901 ft | 452 kts | 351° |
| 2026-05-07 09:01 | 1.83666 | 40.06728 | 35913 ft | 452 kts | 349° |
| 2026-05-07 09:01 | 1.89846 | 40.05564 | 35933 ft | 452 kts | 349° |
| 2026-05-07 09:02 | 1.96006 | 40.04442 | 35931 ft | 453 kts | 350° |
| 2026-05-07 09:02 | 2.02216 | 40.03333 | 35935 ft | 452 kts | 350° |
| 2026-05-07 09:03 | 2.08420 | 40.02229 | 35945 ft | 452 kts | 350° |
| 2026-05-07 09:03 | 2.14613 | 40.01126 | 35956 ft | 452 kts | 350° |
| 2026-05-07 09:04 | 2.20803 | 40.00022 | 35948 ft | 452 kts | 350° |
| 2026-05-07 09:04 | 2.26960 | 39.98924 | 35956 ft | 452 kts | 350° |
| 2026-05-07 09:05 | 2.33154 | 39.97820 | 35954 ft | 452 kts | 350° |
| 2026-05-07 09:05 | 2.39357 | 39.96713 | 35951 ft | 453 kts | 350° |
| 2026-05-07 09:06 | 2.45562 | 39.95606 | 35960 ft | 453 kts | 350° |
| 2026-05-07 09:06 | 2.51776 | 39.94498 | 35955 ft | 453 kts | 350° |
| 2026-05-07 09:07 | 2.57974 | 39.93391 | 35958 ft | 452 kts | 349° |
| 2026-05-07 09:07 | 2.64132 | 39.92244 | 35969 ft | 453 kts | 349° |
| 2026-05-07 09:08 | 2.69286 | 39.91264 | 35954 ft | 453 kts | 349° |
| 2026-05-07 09:08 | 2.75479 | 39.90087 | 35961 ft | 453 kts | 349° |
| 2026-05-07 09:09 | 2.81671 | 39.88917 | 35958 ft | 452 kts | 349° |
| 2026-05-07 09:09 | 2.87865 | 39.87748 | 35963 ft | 452 kts | 349° |
| 2026-05-07 09:10 | 2.94042 | 39.86582 | 35970 ft | 452 kts | 349° |
| 2026-05-07 09:10 | 3.00224 | 39.85416 | 35959 ft | 452 kts | 349° |
| 2026-05-07 09:11 | 3.06414 | 39.84247 | 35965 ft | 452 kts | 349° |
| 2026-05-07 09:11 | 3.12598 | 39.83080 | 35964 ft | 452 kts | 349° |
| 2026-05-07 09:12 | 3.18743 | 39.81920 | 35964 ft | 452 kts | 349° |
| 2026-05-07 09:12 | 3.24926 | 39.80753 | 35976 ft | 452 kts | 349° |
| 2026-05-07 09:13 | 3.31105 | 39.79586 | 35965 ft | 452 kts | 349° |
| 2026-05-07 09:13 | 3.37297 | 39.78416 | 35971 ft | 452 kts | 349° |
| 2026-05-07 09:14 | 3.43483 | 39.77248 | 35972 ft | 452 kts | 349° |
| 2026-05-07 09:14 | 3.49678 | 39.76077 | 35973 ft | 452 kts | 349° |
| 2026-05-07 09:15 | 3.55878 | 39.74906 | 35969 ft | 453 kts | 349° |
| 2026-05-07 09:15 | 3.62041 | 39.73741 | 35974 ft | 453 kts | 349° |
| 2026-05-07 09:16 | 3.68231 | 39.72571 | 35977 ft | 453 kts | 350° |
| 2026-05-07 09:16 | 3.74422 | 39.71401 | 35976 ft | 453 kts | 350° |
| 2026-05-07 09:17 | 3.80625 | 39.70228 | 35978 ft | 453 kts | 350° |
| 2026-05-07 09:17 | 3.86784 | 39.69064 | 35972 ft | 453 kts | 350° |
| 2026-05-07 09:18 | 3.92981 | 39.67891 | 35975 ft | 454 kts | 350° |
| 2026-05-07 09:18 | 3.99188 | 39.66717 | 35966 ft | 454 kts | 350° |
| 2026-05-07 09:19 | 4.05404 | 39.65607 | 35973 ft | 454 kts | 351° |
| 2026-05-07 09:19 | 4.11640 | 39.64578 | 35976 ft | 454 kts | 351° |
| 2026-05-07 09:20 | 4.17882 | 39.63549 | 35971 ft | 454 kts | 351° |
| 2026-05-07 09:20 | 4.24117 | 39.62508 | 35969 ft | 454 kts | 351° |
| 2026-05-07 09:21 | 4.30357 | 39.61461 | 35974 ft | 455 kts | 351° |
| 2026-05-07 09:21 | 4.36596 | 39.60412 | 35970 ft | 455 kts | 351° |
| 2026-05-07 09:22 | 4.42841 | 39.59362 | 35969 ft | 455 kts | 351° |
| 2026-05-07 09:22 | 4.49091 | 39.58311 | 35969 ft | 455 kts | 351° |
| 2026-05-07 09:23 | 4.55352 | 39.57259 | 35967 ft | 456 kts | 351° |
| 2026-05-07 09:23 | 4.61571 | 39.56213 | 35960 ft | 456 kts | 351° |
| 2026-05-07 09:24 | 4.67838 | 39.55159 | 35963 ft | 457 kts | 351° |
| 2026-05-07 09:24 | 4.74109 | 39.54105 | 35966 ft | 457 kts | 351° |
| 2026-05-07 09:25 | 4.80391 | 39.53048 | 35970 ft | 457 kts | 351° |
| 2026-05-07 09:25 | 4.86684 | 39.51989 | 35972 ft | 458 kts | 351° |
| 2026-05-07 09:26 | 4.92964 | 39.50932 | 35973 ft | 458 kts | 351° |
| 2026-05-07 09:26 | 4.99247 | 39.49874 | 35984 ft | 458 kts | 351° |
| 2026-05-07 09:27 | 5.05489 | 39.48823 | 35980 ft | 457 kts | 351° |
| 2026-05-07 09:28 | 5.14907 | 39.47237 | 35990 ft | 457 kts | 351° |
| 2026-05-07 09:28 | 5.21178 | 39.46181 | 35998 ft | 456 kts | 350° |
| 2026-05-07 09:29 | 5.27443 | 39.45126 | 36002 ft | 456 kts | 350° |
| 2026-05-07 09:29 | 5.33700 | 39.44071 | 36007 ft | 456 kts | 350° |
| 2026-05-07 09:30 | 5.39968 | 39.43015 | 36009 ft | 456 kts | 350° |
| 2026-05-07 09:30 | 5.46185 | 39.41967 | 36011 ft | 455 kts | 350° |
| 2026-05-07 09:31 | 5.52437 | 39.40912 | 36006 ft | 456 kts | 350° |
| 2026-05-07 09:31 | 5.58703 | 39.39855 | 36014 ft | 456 kts | 350° |
| 2026-05-07 09:32 | 5.64965 | 39.38780 | 36010 ft | 457 kts | 348° |
| 2026-05-07 09:32 | 5.71043 | 39.36940 | 36008 ft | 457 kts | 341° |
| 2026-05-07 09:33 | 5.77068 | 39.34864 | 36009 ft | 458 kts | 341° |
| 2026-05-07 09:33 | 5.83107 | 39.32796 | 36009 ft | 459 kts | 341° |
| 2026-05-07 09:34 | 5.89130 | 39.30764 | 36025 ft | 460 kts | 341° |
| 2026-05-07 09:34 | 5.95211 | 39.28729 | 36009 ft | 461 kts | 341° |
| 2026-05-07 09:35 | 6.01315 | 39.26688 | 36024 ft | 461 kts | 341° |
| 2026-05-07 09:35 | 6.07417 | 39.24646 | 36023 ft | 462 kts | 341° |
| 2026-05-07 09:36 | 6.13521 | 39.22602 | 36033 ft | 462 kts | 341° |